sensor_id;sensor_type;location;lat;lon;timestamp;pressure;altitude;pressure_sealevel;temperature;humidity
24031;BME280;12240;51.142;22.486;2023-05-02T00:00:55;99483.41;;;7.06;100.00
24031;BME280;12240;51.142;22.486;2023-05-02T00:03:30;99481.22;;;7.11;100.00
24031;BME280;12240;51.142;22.486;2023-05-02T00:06:00;99484.66;;;7.23;100.00
24031;BME280;12240;51.142;22.486;2023-05-02T00:08:29;99481.63;;;7.27;100.00
24031;BME280;12240;51.142;22.486;2023-05-02T00:10:57;99481.88;;;7.24;100.00
24031;BME280;12240;51.142;22.486;2023-05-02T00:13:25;99483.44;;;7.27;100.00
24031;BME280;12240;51.142;22.486;2023-05-02T00:15:53;99481.19;;;7.22;100.00
24031;BME280;12240;51.142;22.486;2023-05-02T00:18:21;99484.97;;;7.08;100.00
24031;BME280;12240;51.142;22.486;2023-05-02T00:20:50;99482.25;;;6.99;100.00
24031;BME280;12240;51.142;22.486;2023-05-02T00:23:19;99484.13;;;6.87;100.00
24031;BME280;12240;51.142;22.486;2023-05-02T00:25:46;99491.00;;;6.79;100.00
24031;BME280;12240;51.142;22.486;2023-05-02T00:28:15;99479.44;;;6.80;100.00
24031;BME280;12240;51.142;22.486;2023-05-02T00:30:46;99488.84;;;6.73;100.00
24031;BME280;12240;51.142;22.486;2023-05-02T00:33:15;99491.72;;;6.81;100.00
24031;BME280;12240;51.142;22.486;2023-05-02T00:35:42;99487.78;;;6.75;100.00
24031;BME280;12240;51.142;22.486;2023-05-02T00:38:11;99490.09;;;6.69;100.00
24031;BME280;12240;51.142;22.486;2023-05-02T00:43:13;99481.75;;;6.73;100.00
24031;BME280;12240;51.142;22.486;2023-05-02T00:45:43;99480.31;;;6.69;100.00
24031;BME280;12240;51.142;22.486;2023-05-02T00:48:12;99480.56;;;6.66;100.00
24031;BME280;12240;51.142;22.486;2023-05-02T00:50:42;99484.88;;;6.67;100.00
24031;BME280;12240;51.142;22.486;2023-05-02T00:53:10;99488.38;;;6.68;100.00
24031;BME280;12240;51.142;22.486;2023-05-02T00:55:38;99481.44;;;6.67;100.00
24031;BME280;12240;51.142;22.486;2023-05-02T00:58:15;99482.16;;;6.69;100.00
24031;BME280;12240;51.142;22.486;2023-05-02T01:03:54;99482.34;;;6.77;100.00
24031;BME280;12240;51.142;22.486;2023-05-02T01:10:04;99474.66;;;6.74;100.00
24031;BME280;12240;51.142;22.486;2023-05-02T01:12:47;99480.31;;;6.69;100.00
24031;BME280;12240;51.142;22.486;2023-05-02T01:15:20;99477.53;;;6.71;100.00
24031;BME280;12240;51.142;22.486;2023-05-02T01:17:51;99471.66;;;6.67;100.00
24031;BME280;12240;51.142;22.486;2023-05-02T01:20:25;99471.91;;;6.64;100.00
24031;BME280;12240;51.142;22.486;2023-05-02T01:23:01;99467.97;;;6.59;100.00
24031;BME280;12240;51.142;22.486;2023-05-02T01:31:14;99467.28;;;6.46;100.00
24031;BME280;12240;51.142;22.486;2023-05-02T01:33:44;99462.13;;;6.44;100.00
24031;BME280;12240;51.142;22.486;2023-05-02T01:36:15;99462.97;;;6.45;100.00
24031;BME280;12240;51.142;22.486;2023-05-02T01:38:44;99460.34;;;6.45;100.00
24031;BME280;12240;51.142;22.486;2023-05-02T01:41:13;99455.41;;;6.40;100.00
24031;BME280;12240;51.142;22.486;2023-05-02T01:43:42;99457.72;;;6.34;100.00
24031;BME280;12240;51.142;22.486;2023-05-02T01:46:13;99449.19;;;6.30;100.00
24031;BME280;12240;51.142;22.486;2023-05-02T01:48:44;99453.66;;;6.19;100.00
24031;BME280;12240;51.142;22.486;2023-05-02T01:51:14;99452.00;;;6.07;100.00
24031;BME280;12240;51.142;22.486;2023-05-02T01:53:47;99445.47;;;6.11;100.00
24031;BME280;12240;51.142;22.486;2023-05-02T01:56:18;99442.25;;;6.07;100.00
24031;BME280;12240;51.142;22.486;2023-05-02T01:58:49;99438.41;;;6.11;100.00
24031;BME280;12240;51.142;22.486;2023-05-02T02:01:17;99447.06;;;6.02;100.00
24031;BME280;12240;51.142;22.486;2023-05-02T02:03:46;99439.75;;;5.95;100.00
24031;BME280;12240;51.142;22.486;2023-05-02T02:06:15;99433.88;;;5.91;100.00
24031;BME280;12240;51.142;22.486;2023-05-02T02:08:44;99430.88;;;5.84;100.00
24031;BME280;12240;51.142;22.486;2023-05-02T02:11:19;99438.75;;;5.73;100.00
24031;BME280;12240;51.142;22.486;2023-05-02T02:13:59;99438.53;;;5.65;100.00
24031;BME280;12240;51.142;22.486;2023-05-02T02:16:31;99435.41;;;5.60;100.00
24031;BME280;12240;51.142;22.486;2023-05-02T02:19:09;99443.19;;;5.51;100.00
24031;BME280;12240;51.142;22.486;2023-05-02T02:21:38;99438.28;;;5.46;100.00
24031;BME280;12240;51.142;22.486;2023-05-02T02:24:09;99437.06;;;5.39;100.00
24031;BME280;12240;51.142;22.486;2023-05-02T02:26:37;99435.53;;;5.48;100.00
24031;BME280;12240;51.142;22.486;2023-05-02T02:29:07;99437.53;;;5.33;100.00
24031;BME280;12240;51.142;22.486;2023-05-02T02:31:36;99433.59;;;5.50;100.00
24031;BME280;12240;51.142;22.486;2023-05-02T02:34:06;99431.91;;;5.49;100.00
24031;BME280;12240;51.142;22.486;2023-05-02T02:36:59;99428.19;;;5.40;100.00
24031;BME280;12240;51.142;22.486;2023-05-02T02:51:19;99418.00;;;5.91;100.00
24031;BME280;12240;51.142;22.486;2023-05-02T02:57:15;99424.00;;;5.82;100.00
24031;BME280;12240;51.142;22.486;2023-05-02T03:00:26;99429.78;;;5.87;100.00
24031;BME280;12240;51.142;22.486;2023-05-02T03:02:55;99427.72;;;5.90;100.00
24031;BME280;12240;51.142;22.486;2023-05-02T03:05:24;99422.44;;;5.90;100.00
24031;BME280;12240;51.142;22.486;2023-05-02T03:07:52;99421.97;;;5.97;100.00
24031;BME280;12240;51.142;22.486;2023-05-02T03:10:22;99428.22;;;5.96;100.00
24031;BME280;12240;51.142;22.486;2023-05-02T03:12:50;99425.09;;;6.02;100.00
24031;BME280;12240;51.142;22.486;2023-05-02T03:18:11;99435.06;;;5.98;100.00
24031;BME280;12240;51.142;22.486;2023-05-02T03:20:39;99424.72;;;5.95;100.00
24031;BME280;12240;51.142;22.486;2023-05-02T03:23:08;99432.16;;;6.01;100.00
24031;BME280;12240;51.142;22.486;2023-05-02T03:25:37;99426.50;;;6.06;100.00
24031;BME280;12240;51.142;22.486;2023-05-02T03:28:10;99430.47;;;6.11;100.00
24031;BME280;12240;51.142;22.486;2023-05-02T03:30:40;99428.94;;;6.09;100.00
24031;BME280;12240;51.142;22.486;2023-05-02T03:33:09;99431.78;;;6.17;100.00
24031;BME280;12240;51.142;22.486;2023-05-02T03:35:39;99436.47;;;6.24;100.00
24031;BME280;12240;51.142;22.486;2023-05-02T03:38:11;99432.47;;;6.30;100.00
24031;BME280;12240;51.142;22.486;2023-05-02T03:40:40;99428.75;;;6.32;100.00
24031;BME280;12240;51.142;22.486;2023-05-02T03:43:10;99433.16;;;6.43;100.00
24031;BME280;12240;51.142;22.486;2023-05-02T03:45:39;99429.19;;;6.48;100.00
24031;BME280;12240;51.142;22.486;2023-05-02T03:48:08;99440.69;;;6.58;100.00
24031;BME280;12240;51.142;22.486;2023-05-02T03:50:37;99434.63;;;6.67;100.00
24031;BME280;12240;51.142;22.486;2023-05-02T03:53:05;99435.16;;;6.82;100.00
24031;BME280;12240;51.142;22.486;2023-05-02T03:55:45;99438.59;;;6.93;100.00
24031;BME280;12240;51.142;22.486;2023-05-02T03:58:22;99442.59;;;7.08;100.00
24031;BME280;12240;51.142;22.486;2023-05-02T04:00:53;99443.13;;;7.23;100.00
24031;BME280;12240;51.142;22.486;2023-05-02T04:03:22;99451.59;;;7.38;100.00
24031;BME280;12240;51.142;22.486;2023-05-02T04:05:51;99452.63;;;7.46;100.00
24031;BME280;12240;51.142;22.486;2023-05-02T04:08:19;99456.44;;;7.53;100.00
24031;BME280;12240;51.142;22.486;2023-05-02T04:10:50;99453.81;;;7.63;100.00
24031;BME280;12240;51.142;22.486;2023-05-02T04:13:19;99451.34;;;7.71;100.00
24031;BME280;12240;51.142;22.486;2023-05-02T04:15:49;99454.84;;;7.81;100.00
24031;BME280;12240;51.142;22.486;2023-05-02T04:18:21;99456.34;;;7.94;100.00
24031;BME280;12240;51.142;22.486;2023-05-02T04:20:51;99459.41;;;7.99;100.00
24031;BME280;12240;51.142;22.486;2023-05-02T04:23:23;99455.25;;;8.06;100.00
24031;BME280;12240;51.142;22.486;2023-05-02T04:25:56;99453.91;;;8.21;100.00
24031;BME280;12240;51.142;22.486;2023-05-02T04:28:35;99461.34;;;8.27;100.00
24031;BME280;12240;51.142;22.486;2023-05-02T04:31:04;99459.56;;;8.47;100.00
24031;BME280;12240;51.142;22.486;2023-05-02T04:33:34;99454.25;;;8.57;100.00
24031;BME280;12240;51.142;22.486;2023-05-02T04:36:04;99454.44;;;8.65;100.00
24031;BME280;12240;51.142;22.486;2023-05-02T04:38:34;99456.94;;;8.66;100.00
24031;BME280;12240;51.142;22.486;2023-05-02T04:41:02;99451.06;;;8.63;100.00
24031;BME280;12240;51.142;22.486;2023-05-02T04:43:41;99455.41;;;8.64;100.00
24031;BME280;12240;51.142;22.486;2023-05-02T04:46:36;99451.34;;;8.60;100.00
24031;BME280;12240;51.142;22.486;2023-05-02T04:49:04;99460.44;;;8.67;100.00
24031;BME280;12240;51.142;22.486;2023-05-02T04:51:32;99459.34;;;8.79;100.00
24031;BME280;12240;51.142;22.486;2023-05-02T04:54:03;99467.56;;;8.76;100.00
24031;BME280;12240;51.142;22.486;2023-05-02T04:56:31;99469.09;;;8.88;100.00
24031;BME280;12240;51.142;22.486;2023-05-02T04:59:00;99467.84;;;9.01;100.00
24031;BME280;12240;51.142;22.486;2023-05-02T05:01:29;99471.63;;;9.18;100.00
24031;BME280;12240;51.142;22.486;2023-05-02T05:03:57;99467.66;;;9.51;100.00
24031;BME280;12240;51.142;22.486;2023-05-02T05:06:26;99462.41;;;9.78;100.00
24031;BME280;12240;51.142;22.486;2023-05-02T05:08:56;99463.28;;;10.05;100.00
24031;BME280;12240;51.142;22.486;2023-05-02T05:11:25;99464.16;;;10.33;100.00
24031;BME280;12240;51.142;22.486;2023-05-02T05:13:53;99460.72;;;10.40;100.00
24031;BME280;12240;51.142;22.486;2023-05-02T05:16:23;99457.16;;;10.49;100.00
24031;BME280;12240;51.142;22.486;2023-05-02T05:18:52;99460.69;;;10.68;100.00
24031;BME280;12240;51.142;22.486;2023-05-02T05:21:20;99456.97;;;10.78;100.00
24031;BME280;12240;51.142;22.486;2023-05-02T05:23:49;99448.75;;;11.07;100.00
24031;BME280;12240;51.142;22.486;2023-05-02T05:26:24;99453.63;;;11.37;100.00
24031;BME280;12240;51.142;22.486;2023-05-02T05:28:53;99452.22;;;11.25;100.00
24031;BME280;12240;51.142;22.486;2023-05-02T05:31:23;99443.38;;;11.42;100.00
24031;BME280;12240;51.142;22.486;2023-05-02T05:33:55;99443.66;;;11.39;100.00
24031;BME280;12240;51.142;22.486;2023-05-02T05:36:25;99448.06;;;11.65;100.00
24031;BME280;12240;51.142;22.486;2023-05-02T05:38:54;99449.88;;;11.65;100.00
24031;BME280;12240;51.142;22.486;2023-05-02T05:41:22;99450.00;;;11.63;100.00
24031;BME280;12240;51.142;22.486;2023-05-02T05:43:58;99456.78;;;12.09;100.00
24031;BME280;12240;51.142;22.486;2023-05-02T05:46:28;99451.88;;;12.38;100.00
24031;BME280;12240;51.142;22.486;2023-05-02T05:48:58;99449.94;;;12.48;100.00
24031;BME280;12240;51.142;22.486;2023-05-02T05:51:27;99451.66;;;12.81;100.00
24031;BME280;12240;51.142;22.486;2023-05-02T05:53:58;99450.97;;;12.63;100.00
24031;BME280;12240;51.142;22.486;2023-05-02T05:56:27;99457.06;;;13.06;100.00
24031;BME280;12240;51.142;22.486;2023-05-02T05:59:06;99447.56;;;13.11;100.00
24031;BME280;12240;51.142;22.486;2023-05-02T06:01:35;99448.22;;;13.13;100.00
24031;BME280;12240;51.142;22.486;2023-05-02T06:04:05;99448.34;;;13.52;100.00
24031;BME280;12240;51.142;22.486;2023-05-02T06:06:37;99447.69;;;13.74;100.00
24031;BME280;12240;51.142;22.486;2023-05-02T06:09:06;99440.88;;;14.02;100.00
24031;BME280;12240;51.142;22.486;2023-05-02T06:11:36;99443.25;;;14.05;100.00
24031;BME280;12240;51.142;22.486;2023-05-02T06:14:05;99440.81;;;14.34;100.00
24031;BME280;12240;51.142;22.486;2023-05-02T06:16:34;99444.75;;;14.77;100.00
24031;BME280;12240;51.142;22.486;2023-05-02T06:19:03;99448.69;;;15.11;100.00
24031;BME280;12240;51.142;22.486;2023-05-02T06:21:31;99444.28;;;14.96;100.00
24031;BME280;12240;51.142;22.486;2023-05-02T06:23:59;99445.53;;;15.31;100.00
24031;BME280;12240;51.142;22.486;2023-05-02T06:26:27;99441.25;;;15.59;100.00
24031;BME280;12240;51.142;22.486;2023-05-02T06:28:55;99442.00;;;15.67;98.81
24031;BME280;12240;51.142;22.486;2023-05-02T06:31:24;99441.81;;;15.69;97.00
24031;BME280;12240;51.142;22.486;2023-05-02T06:33:52;99460.50;;;15.48;100.00
24031;BME280;12240;51.142;22.486;2023-05-02T06:36:21;99471.75;;;15.95;100.00
24031;BME280;12240;51.142;22.486;2023-05-02T06:38:49;99463.44;;;16.04;100.00
24031;BME280;12240;51.142;22.486;2023-05-02T06:41:17;99450.00;;;16.33;98.99
24031;BME280;12240;51.142;22.486;2023-05-02T06:43:47;99448.78;;;16.36;98.86
24031;BME280;12240;51.142;22.486;2023-05-02T06:46:15;99448.69;;;16.59;98.17
24031;BME280;12240;51.142;22.486;2023-05-02T06:48:44;99452.44;;;17.00;98.89
24031;BME280;12240;51.142;22.486;2023-05-02T06:51:13;99451.31;;;17.09;96.38
24031;BME280;12240;51.142;22.486;2023-05-02T06:53:42;99462.28;;;17.50;95.16
24031;BME280;12240;51.142;22.486;2023-05-02T06:56:11;99462.28;;;17.50;96.49
24031;BME280;12240;51.142;22.486;2023-05-02T06:58:39;99449.56;;;17.43;93.38
24031;BME280;12240;51.142;22.486;2023-05-02T07:01:07;99456.09;;;17.34;93.52
24031;BME280;12240;51.142;22.486;2023-05-02T07:03:36;99458.94;;;17.48;93.72
24031;BME280;12240;51.142;22.486;2023-05-02T07:06:04;99458.03;;;17.62;93.46
24031;BME280;12240;51.142;22.486;2023-05-02T07:08:32;99451.78;;;17.61;90.45
24031;BME280;12240;51.142;22.486;2023-05-02T07:11:01;99449.63;;;17.71;90.01
24031;BME280;12240;51.142;22.486;2023-05-02T07:13:29;99445.38;;;17.90;89.58
24031;BME280;12240;51.142;22.486;2023-05-02T07:15:58;99444.31;;;18.18;89.21
24031;BME280;12240;51.142;22.486;2023-05-02T07:18:26;99455.78;;;17.65;88.29
24031;BME280;12240;51.142;22.486;2023-05-02T07:20:54;99449.59;;;17.99;89.08
24031;BME280;12240;51.142;22.486;2023-05-02T07:23:22;99449.69;;;18.52;90.56
24031;BME280;12240;51.142;22.486;2023-05-02T07:25:50;99444.00;;;18.34;86.79
24031;BME280;12240;51.142;22.486;2023-05-02T07:28:19;99439.50;;;18.48;86.58
24031;BME280;12240;51.142;22.486;2023-05-02T07:30:47;99442.81;;;18.43;85.57
24031;BME280;12240;51.142;22.486;2023-05-02T07:33:15;99446.28;;;18.85;87.10
24031;BME280;12240;51.142;22.486;2023-05-02T07:35:43;99450.84;;;18.84;84.74
24031;BME280;12240;51.142;22.486;2023-05-02T07:38:11;99446.56;;;19.16;84.16
24031;BME280;12240;51.142;22.486;2023-05-02T07:40:40;99443.69;;;19.43;81.46
24031;BME280;12240;51.142;22.486;2023-05-02T07:43:08;99440.78;;;19.64;78.76
24031;BME280;12240;51.142;22.486;2023-05-02T07:45:38;99444.09;;;19.80;78.68
24031;BME280;12240;51.142;22.486;2023-05-02T07:48:06;99442.66;;;19.70;77.74
24031;BME280;12240;51.142;22.486;2023-05-02T07:50:34;99444.31;;;19.71;75.29
24031;BME280;12240;51.142;22.486;2023-05-02T07:53:02;99440.59;;;19.40;74.98
24031;BME280;12240;51.142;22.486;2023-05-02T07:55:30;99453.06;;;19.60;77.41
24031;BME280;12240;51.142;22.486;2023-05-02T07:58:00;99443.50;;;19.45;77.93
24031;BME280;12240;51.142;22.486;2023-05-02T08:00:28;99449.31;;;19.42;77.79
24031;BME280;12240;51.142;22.486;2023-05-02T08:02:57;99446.41;;;19.56;75.79
24031;BME280;12240;51.142;22.486;2023-05-02T08:05:25;99444.72;;;19.82;76.88
24031;BME280;12240;51.142;22.486;2023-05-02T08:07:54;99449.47;;;20.06;75.06
24031;BME280;12240;51.142;22.486;2023-05-02T08:10:22;99442.19;;;20.06;74.30
24031;BME280;12240;51.142;22.486;2023-05-02T08:12:51;99448.22;;;19.95;74.73
24031;BME280;12240;51.142;22.486;2023-05-02T08:15:19;99448.53;;;20.51;74.81
24031;BME280;12240;51.142;22.486;2023-05-02T08:17:47;99445.88;;;20.44;75.91
24031;BME280;12240;51.142;22.486;2023-05-02T08:20:16;99445.06;;;20.37;74.25
24031;BME280;12240;51.142;22.486;2023-05-02T08:22:44;99440.41;;;20.51;74.48
24031;BME280;12240;51.142;22.486;2023-05-02T08:25:12;99440.81;;;20.54;74.89
24031;BME280;12240;51.142;22.486;2023-05-02T08:27:41;99431.28;;;20.45;72.78
24031;BME280;12240;51.142;22.486;2023-05-02T08:30:10;99443.19;;;20.31;75.87
24031;BME280;12240;51.142;22.486;2023-05-02T08:32:39;99441.38;;;20.69;76.43
24031;BME280;12240;51.142;22.486;2023-05-02T08:35:08;99428.09;;;20.61;73.79
24031;BME280;12240;51.142;22.486;2023-05-02T08:37:38;99439.25;;;20.78;76.45
24031;BME280;12240;51.142;22.486;2023-05-02T08:40:11;99441.19;;;21.09;76.33
24031;BME280;12240;51.142;22.486;2023-05-02T08:42:42;99438.13;;;20.99;72.75
24031;BME280;12240;51.142;22.486;2023-05-02T08:45:13;99435.88;;;20.89;70.81
24031;BME280;12240;51.142;22.486;2023-05-02T08:47:44;99429.19;;;20.92;73.28
24031;BME280;12240;51.142;22.486;2023-05-02T08:50:15;99431.69;;;21.00;71.56
24031;BME280;12240;51.142;22.486;2023-05-02T08:52:45;99438.97;;;21.30;72.83
24031;BME280;12240;51.142;22.486;2023-05-02T08:55:14;99439.38;;;20.58;72.96
24031;BME280;12240;51.142;22.486;2023-05-02T08:57:42;99442.31;;;20.95;73.79
24031;BME280;12240;51.142;22.486;2023-05-02T09:00:12;99433.03;;;20.77;70.75
24031;BME280;12240;51.142;22.486;2023-05-02T09:05:40;99426.56;;;21.16;70.30
24031;BME280;12240;51.142;22.486;2023-05-02T09:08:09;99429.78;;;21.31;71.46
24031;BME280;12240;51.142;22.486;2023-05-02T09:10:38;99439.59;;;21.26;71.41
24031;BME280;12240;51.142;22.486;2023-05-02T09:13:32;99434.75;;;21.59;69.97
24031;BME280;12240;51.142;22.486;2023-05-02T09:16:07;99446.50;;;21.53;71.55
24031;BME280;12240;51.142;22.486;2023-05-02T09:18:54;99433.59;;;21.48;71.68
24031;BME280;12240;51.142;22.486;2023-05-02T09:21:44;99443.88;;;21.15;72.02
24031;BME280;12240;51.142;22.486;2023-05-02T09:24:21;99443.91;;;21.64;70.59
24031;BME280;12240;51.142;22.486;2023-05-02T09:27:04;99442.09;;;21.83;73.43
24031;BME280;12240;51.142;22.486;2023-05-02T09:29:33;99447.72;;;22.06;72.50
24031;BME280;12240;51.142;22.486;2023-05-02T09:32:06;99437.44;;;21.90;71.23
24031;BME280;12240;51.142;22.486;2023-05-02T09:34:34;99441.47;;;22.24;71.21
24031;BME280;12240;51.142;22.486;2023-05-02T09:37:04;99452.88;;;22.32;73.64
24031;BME280;12240;51.142;22.486;2023-05-02T09:39:33;99438.78;;;22.24;69.59
24031;BME280;12240;51.142;22.486;2023-05-02T09:42:01;99433.69;;;21.91;66.67
24031;BME280;12240;51.142;22.486;2023-05-02T09:44:37;99435.97;;;21.38;67.87
24031;BME280;12240;51.142;22.486;2023-05-02T09:47:07;99451.31;;;21.51;70.75
24031;BME280;12240;51.142;22.486;2023-05-02T09:52:13;99445.19;;;21.86;68.27
24031;BME280;12240;51.142;22.486;2023-05-02T09:54:43;99438.94;;;21.61;67.80
24031;BME280;12240;51.142;22.486;2023-05-02T09:57:13;99442.44;;;21.62;69.01
24031;BME280;12240;51.142;22.486;2023-05-02T09:59:56;99445.94;;;21.69;67.58
24031;BME280;12240;51.142;22.486;2023-05-02T10:02:25;99439.16;;;21.60;65.87
24031;BME280;12240;51.142;22.486;2023-05-02T10:04:58;99459.34;;;21.88;70.74
24031;BME280;12240;51.142;22.486;2023-05-02T10:07:28;99445.22;;;21.55;67.37
24031;BME280;12240;51.142;22.486;2023-05-02T10:09:57;99451.59;;;21.43;68.17
24031;BME280;12240;51.142;22.486;2023-05-02T10:12:30;99447.81;;;21.44;67.50
24031;BME280;12240;51.142;22.486;2023-05-02T10:15:03;99460.22;;;21.58;69.41
24031;BME280;12240;51.142;22.486;2023-05-02T10:17:38;99459.88;;;21.48;69.36
24031;BME280;12240;51.142;22.486;2023-05-02T10:20:18;99452.19;;;21.45;68.13
24031;BME280;12240;51.142;22.486;2023-05-02T10:22:50;99442.13;;;21.21;66.53
24031;BME280;12240;51.142;22.486;2023-05-02T10:25:19;99448.06;;;21.11;68.33
24031;BME280;12240;51.142;22.486;2023-05-02T10:27:48;99449.00;;;21.23;69.85
24031;BME280;12240;51.142;22.486;2023-05-02T10:30:16;99448.88;;;21.43;70.81
24031;BME280;12240;51.142;22.486;2023-05-02T10:32:47;99445.00;;;21.32;70.11
24031;BME280;12240;51.142;22.486;2023-05-02T10:35:16;99454.31;;;21.36;70.48
24031;BME280;12240;51.142;22.486;2023-05-02T10:37:46;99449.81;;;21.30;68.74
24031;BME280;12240;51.142;22.486;2023-05-02T10:40:17;99446.75;;;21.20;70.49
24031;BME280;12240;51.142;22.486;2023-05-02T10:42:47;99445.00;;;20.95;68.50
24031;BME280;12240;51.142;22.486;2023-05-02T10:45:35;99444.44;;;20.79;69.28
24031;BME280;12240;51.142;22.486;2023-05-02T10:48:23;99451.84;;;20.59;70.19
24031;BME280;12240;51.142;22.486;2023-05-02T10:50:58;99452.84;;;20.65;70.23
24031;BME280;12240;51.142;22.486;2023-05-02T10:53:34;99451.09;;;20.83;71.42
24031;BME280;12240;51.142;22.486;2023-05-02T10:56:18;99461.84;;;21.03;71.56
24031;BME280;12240;51.142;22.486;2023-05-02T10:59:29;99449.06;;;21.41;70.18
24031;BME280;12240;51.142;22.486;2023-05-02T11:01:58;99455.03;;;21.56;71.28
24031;BME280;12240;51.142;22.486;2023-05-02T11:05:03;99464.84;;;21.51;72.38
24031;BME280;12240;51.142;22.486;2023-05-02T11:07:34;99460.13;;;21.40;72.34
24031;BME280;12240;51.142;22.486;2023-05-02T11:12:49;99469.09;;;21.40;74.25
24031;BME280;12240;51.142;22.486;2023-05-02T11:18:07;99458.97;;;21.29;71.11
24031;BME280;12240;51.142;22.486;2023-05-02T11:20:44;99461.53;;;21.49;70.71
24031;BME280;12240;51.142;22.486;2023-05-02T11:25:50;99452.44;;;21.37;70.39
24031;BME280;12240;51.142;22.486;2023-05-02T11:34:02;99454.47;;;21.17;70.20
24031;BME280;12240;51.142;22.486;2023-05-02T11:36:34;99462.66;;;21.10;70.31
24031;BME280;12240;51.142;22.486;2023-05-02T11:39:03;99446.91;;;20.88;69.66
24031;BME280;12240;51.142;22.486;2023-05-02T11:41:42;99449.84;;;20.86;70.50
24031;BME280;12240;51.142;22.486;2023-05-02T11:44:11;99451.97;;;20.77;70.31
24031;BME280;12240;51.142;22.486;2023-05-02T11:46:39;99451.75;;;20.79;71.20
24031;BME280;12240;51.142;22.486;2023-05-02T11:49:08;99456.94;;;20.80;71.55
24031;BME280;12240;51.142;22.486;2023-05-02T11:51:42;99466.50;;;20.83;73.98
24031;BME280;12240;51.142;22.486;2023-05-02T11:54:18;99462.50;;;20.92;72.39
24031;BME280;12240;51.142;22.486;2023-05-02T11:56:47;99456.47;;;20.90;72.33
24031;BME280;12240;51.142;22.486;2023-05-02T11:59:15;99452.06;;;20.96;71.32
24031;BME280;12240;51.142;22.486;2023-05-02T12:01:50;99472.16;;;21.19;73.82
24031;BME280;12240;51.142;22.486;2023-05-02T12:04:20;99457.31;;;21.28;70.85
24031;BME280;12240;51.142;22.486;2023-05-02T12:06:55;99454.09;;;21.38;70.35
24031;BME280;12240;51.142;22.486;2023-05-02T12:09:24;99450.25;;;21.21;69.57
24031;BME280;12240;51.142;22.486;2023-05-02T12:11:53;99462.91;;;21.33;71.80
24031;BME280;12240;51.142;22.486;2023-05-02T12:14:29;99452.16;;;21.51;71.19
24031;BME280;12240;51.142;22.486;2023-05-02T12:16:58;99458.94;;;21.60;70.80
24031;BME280;12240;51.142;22.486;2023-05-02T12:19:27;99449.94;;;21.66;69.00
24031;BME280;12240;51.142;22.486;2023-05-02T12:21:55;99451.38;;;21.93;71.85
24031;BME280;12240;51.142;22.486;2023-05-02T12:24:23;99461.03;;;22.08;70.58
24031;BME280;12240;51.142;22.486;2023-05-02T12:29:41;99441.38;;;22.12;69.26
24031;BME280;12240;51.142;22.486;2023-05-02T12:32:11;99448.59;;;22.00;69.63
24031;BME280;12240;51.142;22.486;2023-05-02T12:34:39;99433.78;;;22.21;68.59
24031;BME280;12240;51.142;22.486;2023-05-02T12:37:08;99434.81;;;22.38;68.43
24031;BME280;12240;51.142;22.486;2023-05-02T12:39:41;99435.47;;;22.58;68.49
24031;BME280;12240;51.142;22.486;2023-05-02T12:42:15;99426.41;;;22.64;68.78
24031;BME280;12240;51.142;22.486;2023-05-02T12:44:46;99442.09;;;22.91;72.88
24031;BME280;12240;51.142;22.486;2023-05-02T12:47:15;99437.47;;;22.80;70.68
24031;BME280;12240;51.142;22.486;2023-05-02T12:50:10;99433.63;;;22.52;71.14
24031;BME280;12240;51.142;22.486;2023-05-02T12:52:48;99437.56;;;22.20;69.73
24031;BME280;12240;51.142;22.486;2023-05-02T12:55:23;99448.09;;;22.28;72.58
24031;BME280;12240;51.142;22.486;2023-05-02T12:58:03;99431.22;;;22.62;70.03
24031;BME280;12240;51.142;22.486;2023-05-02T13:00:35;99436.22;;;22.94;71.67
24031;BME280;12240;51.142;22.486;2023-05-02T13:03:03;99422.22;;;23.09;69.13
24031;BME280;12240;51.142;22.486;2023-05-02T13:05:32;99416.94;;;23.26;68.87
24031;BME280;12240;51.142;22.486;2023-05-02T13:08:00;99423.25;;;23.38;70.88
24031;BME280;12240;51.142;22.486;2023-05-02T13:10:30;99426.47;;;23.46;71.14
24031;BME280;12240;51.142;22.486;2023-05-02T13:12:58;99426.88;;;23.73;71.68
24031;BME280;12240;51.142;22.486;2023-05-02T13:15:26;99422.59;;;23.65;71.75
24031;BME280;12240;51.142;22.486;2023-05-02T13:17:54;99415.59;;;23.46;70.93
24031;BME280;12240;51.142;22.486;2023-05-02T13:20:23;99415.13;;;23.38;69.37
24031;BME280;12240;51.142;22.486;2023-05-02T13:22:51;99415.00;;;23.44;70.51
24031;BME280;12240;51.142;22.486;2023-05-02T13:25:20;99407.69;;;23.56;68.96
24031;BME280;12240;51.142;22.486;2023-05-02T13:27:48;99427.06;;;23.60;70.05
24031;BME280;12240;51.142;22.486;2023-05-02T13:30:16;99418.78;;;23.43;72.07
24031;BME280;12240;51.142;22.486;2023-05-02T13:32:45;99416.81;;;23.21;69.47
24031;BME280;12240;51.142;22.486;2023-05-02T13:35:13;99410.88;;;23.42;69.00
24031;BME280;12240;51.142;22.486;2023-05-02T13:37:42;99410.16;;;23.05;67.46
24031;BME280;12240;51.142;22.486;2023-05-02T13:40:11;99410.97;;;22.94;67.10
24031;BME280;12240;51.142;22.486;2023-05-02T13:42:40;99406.84;;;23.03;67.62
24031;BME280;12240;51.142;22.486;2023-05-02T13:45:09;99411.19;;;22.92;69.19
24031;BME280;12240;51.142;22.486;2023-05-02T13:47:37;99418.75;;;22.90;69.83
24031;BME280;12240;51.142;22.486;2023-05-02T13:50:08;99417.16;;;22.83;69.86
24031;BME280;12240;51.142;22.486;2023-05-02T13:52:37;99417.16;;;22.83;68.85
24031;BME280;12240;51.142;22.486;2023-05-02T13:55:05;99409.97;;;22.77;68.11
24031;BME280;12240;51.142;22.486;2023-05-02T13:57:34;99421.63;;;23.07;70.29
24031;BME280;12240;51.142;22.486;2023-05-02T14:00:02;99417.91;;;22.90;68.90
24031;BME280;12240;51.142;22.486;2023-05-02T14:02:32;99417.69;;;23.03;70.43